createdAt,value
2023-02-16T00:00:10.085Z,-0.4
2023-02-16T00:05:10.100Z,-0.5
2023-02-16T00:10:10.100Z,-0.5
2023-02-16T00:15:10.113Z,-0.5
2023-02-16T00:20:10.100Z,-0.5
2023-02-16T00:25:10.091Z,-0.5
2023-02-16T00:30:10.140Z,-0.5
2023-02-16T00:35:10.111Z,-0.6
2023-02-16T00:40:10.114Z,-0.6
2023-02-16T00:45:10.110Z,-0.5
2023-02-16T00:50:10.107Z,-0.6
2023-02-16T00:55:10.119Z,-0.6
2023-02-16T01:00:10.134Z,-0.5
2023-02-16T01:05:10.117Z,-0.5
2023-02-16T01:10:10.109Z,-0.5
2023-02-16T01:15:10.108Z,-0.5
2023-02-16T01:20:10.113Z,-0.6
2023-02-16T01:25:10.101Z,-0.6
2023-02-16T01:30:10.197Z,-0.6
2023-02-16T01:35:10.112Z,-0.7
2023-02-16T01:40:10.105Z,-0.8
2023-02-16T01:45:10.112Z,-0.9
2023-02-16T01:50:10.112Z,-0.8
2023-02-16T01:55:10.106Z,-0.9
2023-02-16T02:00:10.107Z,-0.9
2023-02-16T02:05:10.113Z,-1.1
2023-02-16T02:10:10.105Z,-1.1
2023-02-16T02:15:10.108Z,-1.1
2023-02-16T02:20:10.098Z,-1
2023-02-16T02:25:10.105Z,-1.1
2023-02-16T02:30:10.140Z,-1.1
2023-02-16T02:35:10.113Z,-1.1
2023-02-16T02:40:10.106Z,-1.1
2023-02-16T02:45:10.122Z,-1.1
2023-02-16T02:50:10.107Z,-1.2
2023-02-16T02:55:10.112Z,-1.2
2023-02-16T03:00:10.103Z,-1.2
2023-02-16T03:05:10.106Z,-1.2
2023-02-16T03:10:10.114Z,-1.3
2023-02-16T03:15:10.102Z,-1.3
2023-02-16T03:20:10.110Z,-1.2
2023-02-16T03:25:10.106Z,-1.2
2023-02-16T03:30:10.153Z,-1.3
2023-02-16T03:35:10.107Z,-1.3
2023-02-16T03:40:10.096Z,-1.3
2023-02-16T03:45:10.109Z,-1.2
2023-02-16T03:50:10.093Z,-1.2
2023-02-16T03:55:10.106Z,-1.2
2023-02-16T04:00:10.090Z,-1.3
2023-02-16T04:05:10.100Z,-1.3
2023-02-16T04:10:10.109Z,-1.3
2023-02-16T04:15:10.107Z,-1.4
2023-02-16T04:20:10.107Z,-1.5
2023-02-16T04:25:10.108Z,-1.5
2023-02-16T04:30:10.166Z,-1.5
2023-02-16T04:35:10.096Z,-1.6
2023-02-16T04:40:10.108Z,-1.6
2023-02-16T04:45:10.095Z,-1.6
2023-02-16T04:50:10.112Z,-1.7
2023-02-16T04:55:10.113Z,-1.7
2023-02-16T05:00:10.099Z,-1.7
2023-02-16T05:05:10.101Z,-1.6
2023-02-16T05:10:10.114Z,-1.6
2023-02-16T05:15:10.112Z,-1.5
2023-02-16T05:20:10.106Z,-1.6
2023-02-16T05:25:10.108Z,-1.6
2023-02-16T05:30:10.123Z,-1.6
2023-02-16T05:35:10.115Z,-1.7
2023-02-16T05:40:10.117Z,-1.6
2023-02-16T05:45:10.110Z,-1.5
2023-02-16T05:50:10.096Z,-1.6
2023-02-16T05:55:10.109Z,-1.5
2023-02-16T06:00:10.106Z,-1.6
2023-02-16T06:05:10.106Z,-1.6
2023-02-16T06:10:10.113Z,-1.6
2023-02-16T06:15:10.123Z,-1.6
2023-02-16T06:20:10.111Z,-1.7
2023-02-16T06:25:10.139Z,-1.6
2023-02-16T06:30:10.256Z,-1.6
2023-02-16T06:35:10.180Z,-1.7
2023-02-16T06:40:10.101Z,-1.6
2023-02-16T06:45:10.101Z,-1.7
2023-02-16T06:50:10.139Z,-1.7
2023-02-16T06:55:10.113Z,-1.7
2023-02-16T07:00:10.132Z,-1.7
2023-02-16T07:05:10.124Z,-1.6
2023-02-16T07:10:10.134Z,-1.7
2023-02-16T07:15:10.110Z,-1.7
2023-02-16T07:20:10.124Z,-1.7
2023-02-16T07:25:10.133Z,-1.7
2023-02-16T07:30:10.199Z,-1.6
2023-02-16T07:35:10.101Z,-1.7
2023-02-16T07:40:10.137Z,-1.7
2023-02-16T07:45:10.119Z,-1.8
2023-02-16T07:50:10.091Z,-1.7
2023-02-16T07:55:10.093Z,-1.7
2023-02-16T08:00:10.099Z,-1.7
2023-02-16T08:05:10.105Z,-1.7
2023-02-16T08:10:10.099Z,-1.6
2023-02-16T08:15:10.099Z,-1.7
2023-02-16T08:20:10.103Z,-1.6
2023-02-16T08:25:10.120Z,-1.6
2023-02-16T08:30:10.152Z,-1.6
2023-02-16T08:35:10.130Z,-1.6
2023-02-16T08:40:10.106Z,-1.5
2023-02-16T08:45:10.114Z,-1.4
2023-02-16T08:50:10.102Z,-1.5
2023-02-16T08:55:10.111Z,-1.4
2023-02-16T09:00:10.102Z,-1.3
2023-02-16T09:05:10.104Z,-1.4
2023-02-16T09:10:10.091Z,-1.3
2023-02-16T09:15:10.104Z,-1.2
2023-02-16T09:20:10.112Z,-1.1
2023-02-16T09:25:10.098Z,-1.2
2023-02-16T09:30:10.156Z,-1.1
2023-02-16T09:35:10.101Z,-0.9
2023-02-16T09:40:10.104Z,-0.8
2023-02-16T09:45:10.114Z,-0.7
2023-02-16T09:50:10.109Z,-0.6
2023-02-16T09:55:10.105Z,-0.4
2023-02-16T10:00:10.097Z,-0.3
2023-02-16T10:05:10.103Z,-0.3
2023-02-16T10:10:10.107Z,-0.3
2023-02-16T10:15:10.096Z,-0.3
2023-02-16T10:20:10.104Z,-0.3
2023-02-16T10:25:10.104Z,-0.3
2023-02-16T10:30:10.147Z,-0.3
2023-02-16T10:35:10.098Z,-0.2
2023-02-16T10:40:10.107Z,-0.2
2023-02-16T10:45:10.113Z,-0.2
2023-02-16T10:50:10.095Z,-0.1
2023-02-16T10:55:10.104Z,-0.1
2023-02-16T11:00:10.117Z,0.1
2023-02-16T11:05:10.113Z,0.1
2023-02-16T11:10:10.111Z,0.2
2023-02-16T11:15:10.116Z,0.3
2023-02-16T11:20:10.126Z,0.3
2023-02-16T11:25:10.110Z,0.3
2023-02-16T11:30:10.137Z,0.6
2023-02-16T11:35:10.111Z,0.7
2023-02-16T11:40:10.105Z,0.8
2023-02-16T11:45:10.107Z,1
2023-02-16T11:50:10.112Z,1
2023-02-16T11:55:10.092Z,1
2023-02-16T12:00:10.102Z,0.9
2023-02-16T12:05:10.145Z,1.1
2023-02-16T12:10:10.114Z,1.4
2023-02-16T12:15:10.099Z,1.7
2023-02-16T12:20:10.117Z,1.8
2023-02-16T12:25:10.104Z,1.5
2023-02-16T12:30:10.112Z,1.5
2023-02-16T12:35:10.098Z,1.6
2023-02-16T12:40:10.096Z,1.8
2023-02-16T12:45:10.096Z,1.7
2023-02-16T12:50:10.156Z,1.9
2023-02-16T12:55:10.102Z,1.9
2023-02-16T13:00:10.147Z,1.8
2023-02-16T13:05:10.136Z,2
2023-02-16T13:10:10.175Z,1.9
2023-02-16T13:15:10.106Z,1.9
2023-02-16T13:20:10.192Z,1.9
2023-02-16T13:25:10.294Z,1.9
2023-02-16T13:30:10.272Z,1.8
2023-02-16T13:35:10.108Z,2
2023-02-16T13:40:10.110Z,2
2023-02-16T13:45:10.104Z,2
2023-02-16T13:50:10.094Z,2.2
2023-02-16T13:55:10.101Z,2.2
2023-02-16T14:00:10.093Z,2.3
2023-02-16T14:05:10.110Z,2.3
2023-02-16T14:10:10.120Z,2.3
2023-02-16T14:15:10.121Z,2.3
2023-02-16T14:20:10.364Z,2.3
2023-02-16T14:25:10.122Z,2.3
2023-02-16T14:30:10.133Z,2.4
2023-02-16T14:35:10.114Z,2.3
2023-02-16T14:40:10.113Z,2.5
2023-02-16T14:45:10.128Z,2.5
2023-02-16T14:50:10.112Z,2.6
2023-02-16T14:55:10.120Z,2.6
2023-02-16T15:00:10.104Z,2.6
2023-02-16T15:05:10.114Z,2.6
2023-02-16T15:10:10.112Z,2.6
2023-02-16T15:15:10.126Z,2.6
2023-02-16T15:20:10.117Z,2.6
2023-02-16T15:25:10.342Z,2.7
2023-02-16T15:30:10.164Z,2.7
2023-02-16T15:35:10.139Z,2.7
2023-02-16T15:40:24.802Z,2.7
2023-02-16T15:45:10.121Z,2.7
2023-02-16T15:50:10.108Z,2.7
2023-02-16T15:55:10.143Z,2.7
2023-02-16T16:00:10.115Z,2.7
2023-02-16T16:05:10.168Z,2.7
2023-02-16T16:10:10.115Z,2.7
2023-02-16T16:15:10.112Z,2.7
2023-02-16T16:20:10.113Z,2.7
2023-02-16T16:25:10.126Z,2.7
2023-02-16T16:30:10.133Z,2.7
2023-02-16T16:35:10.115Z,2.7
2023-02-16T16:40:10.100Z,2.7
2023-02-16T16:45:10.101Z,2.7
2023-02-16T16:50:10.113Z,2.6
2023-02-16T16:55:10.109Z,2.6
2023-02-16T17:00:10.108Z,2.6
2023-02-16T17:05:10.103Z,2.6
2023-02-16T17:10:10.111Z,2.6
2023-02-16T17:15:10.104Z,2.6
2023-02-16T17:20:10.098Z,2.5
2023-02-16T17:25:10.106Z,2.4
2023-02-16T17:30:10.130Z,2.3
2023-02-16T17:35:10.095Z,2.2
2023-02-16T17:40:10.104Z,2.1
2023-02-16T17:45:10.099Z,2
2023-02-16T17:50:10.095Z,1.9
2023-02-16T17:55:10.095Z,1.9
2023-02-16T18:00:10.096Z,2
2023-02-16T18:05:10.094Z,2
2023-02-16T18:10:10.090Z,2
2023-02-16T18:15:10.090Z,1.9
2023-02-16T18:20:10.093Z,1.9
2023-02-16T18:25:10.112Z,1.9
2023-02-16T18:30:10.150Z,1.9
2023-02-16T18:35:10.121Z,1.9
2023-02-16T18:40:10.103Z,1.9
2023-02-16T18:45:10.101Z,1.9
2023-02-16T18:50:10.104Z,1.9
2023-02-16T18:55:10.105Z,1.9
2023-02-16T19:00:10.105Z,1.9
2023-02-16T19:05:10.121Z,1.9
2023-02-16T19:10:10.106Z,1.9
2023-02-16T19:15:10.120Z,1.9
2023-02-16T19:20:10.112Z,1.9
2023-02-16T19:25:10.100Z,1.9
2023-02-16T19:30:10.175Z,1.9
2023-02-16T19:35:10.118Z,2
2023-02-16T19:40:10.098Z,2
2023-02-16T19:45:10.093Z,1.9
2023-02-16T19:50:10.095Z,1.9
2023-02-16T19:55:11.525Z,2
2023-02-16T20:00:10.091Z,2
2023-02-16T20:05:10.103Z,1.9
2023-02-16T20:10:10.097Z,2.2
2023-02-16T20:15:10.104Z,2.4
2023-02-16T20:20:10.107Z,2.6
2023-02-16T20:25:10.113Z,2.6
2023-02-16T20:30:10.144Z,2.7
2023-02-16T20:35:10.107Z,2.7
2023-02-16T20:40:10.096Z,2.7
2023-02-16T20:45:10.106Z,2.6
2023-02-16T20:50:10.100Z,2.7
2023-02-16T20:55:10.101Z,2.9
2023-02-16T21:00:10.086Z,2.9
2023-02-16T21:05:10.100Z,3
2023-02-16T21:10:10.089Z,2.8
2023-02-16T21:15:10.102Z,2.5
2023-02-16T21:20:10.084Z,2.4
2023-02-16T21:25:10.096Z,2.2
2023-02-16T21:30:10.186Z,2
2023-02-16T21:35:10.119Z,1.9
2023-02-16T21:40:10.103Z,1.8
2023-02-16T21:45:10.103Z,1.7
2023-02-16T21:50:10.098Z,1.4
2023-02-16T21:55:10.108Z,1.4
2023-02-16T22:00:10.092Z,1.6
2023-02-16T22:05:10.089Z,1.8
2023-02-16T22:10:10.118Z,2
2023-02-16T22:15:10.116Z,2.1
2023-02-16T22:20:10.090Z,2.3
2023-02-16T22:25:10.101Z,2.8
2023-02-16T22:30:10.117Z,3.2
2023-02-16T22:35:10.108Z,3
2023-02-16T22:40:10.097Z,4.3
2023-02-16T22:45:10.113Z,5
2023-02-16T22:50:10.107Z,5.4
2023-02-16T22:55:10.104Z,5.5
2023-02-16T23:00:10.104Z,5.6
2023-02-16T23:05:10.107Z,5.6
2023-02-16T23:10:10.116Z,5.7
2023-02-16T23:15:10.094Z,5.8
2023-02-16T23:20:10.093Z,5.8
2023-02-16T23:25:10.100Z,5.9
2023-02-16T23:30:10.142Z,6
2023-02-16T23:35:10.112Z,6.1
2023-02-16T23:40:10.108Z,6.2
2023-02-16T23:45:10.116Z,6.5
2023-02-16T23:50:10.100Z,6.7
2023-02-16T23:55:10.098Z,6.6
